createdAt,value
2024-04-22T00:02:29.310Z,99027.47
2024-04-22T00:07:31.098Z,99025.34
2024-04-22T00:12:32.973Z,99024.05
2024-04-22T00:17:35.513Z,99023.58
2024-04-22T00:22:37.451Z,99019.89
2024-04-22T00:27:39.200Z,99015.19
2024-04-22T00:32:41.059Z,99014.18
2024-04-22T00:37:42.995Z,99014.19
2024-04-22T00:42:48.315Z,99015.70
2024-04-22T00:47:50.611Z,99018.38
2024-04-22T00:52:53.435Z,99020.20
2024-04-22T00:57:58.397Z,99018.95
2024-04-22T01:03:00.108Z,99016.73
2024-04-22T01:08:02.487Z,99020.18
2024-04-22T01:13:04.976Z,99016.55
2024-04-22T01:18:07.029Z,99013.67
2024-04-22T01:23:08.668Z,99012.98
2024-04-22T01:28:10.468Z,99014.63
2024-04-22T01:33:12.395Z,99015.48
2024-04-22T01:38:14.116Z,99016.27
2024-04-22T01:43:15.907Z,99015.88
2024-04-22T01:48:17.751Z,99018.88
2024-04-22T01:53:19.414Z,99019.63
2024-04-22T01:58:21.183Z,99023.15
2024-04-22T02:03:23.170Z,99021.48
2024-04-22T02:08:24.884Z,99019.36
2024-04-22T02:13:26.664Z,99020.61
2024-04-22T02:18:28.654Z,99020.34
2024-04-22T02:23:30.548Z,99018.73
2024-04-22T02:28:32.322Z,99020.98
2024-04-22T02:33:34.172Z,99024.38
2024-04-22T02:38:36.010Z,99022.05
2024-04-22T02:43:37.803Z,99021.77
2024-04-22T02:48:39.697Z,99026.67
2024-04-22T02:53:41.569Z,99018.42
2024-04-22T02:58:46.340Z,99018.98
2024-04-22T03:03:48.159Z,99023.51
2024-04-22T03:08:51.631Z,99024.36
2024-04-22T03:13:53.504Z,99028.32
2024-04-22T03:18:55.256Z,99033.39
2024-04-22T03:23:56.997Z,99031.05
2024-04-22T03:28:58.793Z,99034.50
2024-04-22T03:34:00.880Z,99036.06
2024-04-22T03:39:02.549Z,99038.60
2024-04-22T03:44:04.436Z,99044.24
2024-04-22T03:49:24.988Z,99044.92
2024-04-22T03:54:26.673Z,99052.48
2024-04-22T03:59:28.516Z,99048.43
2024-04-22T04:04:30.379Z,99057.95
2024-04-22T04:09:32.271Z,99055.41
2024-04-22T04:14:34.032Z,99057.73
2024-04-22T04:19:35.950Z,99058.52
2024-04-22T04:24:37.823Z,99062.63
2024-04-22T04:29:39.571Z,99061.20
2024-04-22T04:34:43.581Z,99066.63
2024-04-22T04:39:45.332Z,99076.19
2024-04-22T04:44:47.021Z,99081.48
2024-04-22T04:49:48.961Z,99090.27
2024-04-22T04:54:53.141Z,99093.77
2024-04-22T04:59:55.220Z,99095.73
2024-04-22T05:04:56.963Z,99105.98
2024-04-22T05:09:58.725Z,99112.20
2024-04-22T05:15:01.612Z,99115.39
2024-04-22T05:20:03.630Z,99121.41
2024-04-22T05:25:05.479Z,99124.83
2024-04-22T05:30:07.596Z,99121.95
2024-04-22T05:35:28.180Z,99124.09
2024-04-22T05:40:30.641Z,99130.45
2024-04-22T05:45:33.901Z,99135.56
2024-04-22T05:50:35.667Z,99140.45
2024-04-22T05:55:37.468Z,99145.40
2024-04-22T06:00:39.328Z,99141.05
2024-04-22T06:05:41.290Z,99144.42
2024-04-22T06:10:47.191Z,99157.35
2024-04-22T06:15:49.090Z,99159.28
2024-04-22T06:20:50.888Z,99163.33
2024-04-22T06:25:52.663Z,99173.73
2024-04-22T06:30:54.381Z,99171.29
2024-04-22T06:35:56.946Z,99176.33
2024-04-22T06:40:58.654Z,99180.58
2024-04-22T06:46:00.443Z,99176.99
2024-04-22T06:51:02.210Z,99179.68
2024-04-22T06:56:04.211Z,99184.30
2024-04-22T07:01:05.864Z,99187.15
2024-04-22T07:06:11.218Z,99197.88
2024-04-22T07:11:12.981Z,99204.20
2024-04-22T07:16:15.224Z,99206.06
2024-04-22T07:21:17.182Z,99211.61
2024-04-22T07:26:19.011Z,99216.08
2024-04-22T07:31:21.080Z,99221.52
2024-04-22T07:36:32.120Z,99215.33
2024-04-22T07:41:34.229Z,99218.77
2024-04-22T07:46:36.266Z,99223.73
2024-04-22T07:51:38.868Z,99225.36
2024-04-22T07:56:41.012Z,99230.13
2024-04-22T08:01:43.094Z,99236.36
2024-04-22T08:06:45.671Z,99234.98
2024-04-22T08:11:47.486Z,99239.83
2024-04-22T08:16:49.334Z,99237.92
2024-04-22T08:21:51.208Z,99235.84
2024-04-22T08:26:57.149Z,99236.17
2024-04-22T08:31:58.874Z,99238.95
2024-04-22T08:37:00.634Z,99235.34
2024-04-22T08:42:10.787Z,99232.91
2024-04-22T08:47:12.514Z,99232.20
2024-04-22T08:52:16.453Z,99233.52
2024-04-22T08:57:18.726Z,99236.97
2024-04-22T09:02:21.766Z,99234.73
2024-04-22T09:07:23.531Z,99230.98
2024-04-22T09:12:25.561Z,99236.09
2024-04-22T09:17:27.916Z,99233.96
2024-04-22T09:22:31.398Z,99235.54
2024-04-22T09:27:33.473Z,99234.81
2024-04-22T09:32:36.783Z,99229.55
2024-04-22T09:37:39.942Z,99232.02
2024-04-22T09:42:43.504Z,99233.09
2024-04-22T09:47:47.650Z,99225.70
2024-04-22T09:52:51.043Z,99220.49
2024-04-22T09:58:01.795Z,99219.73
2024-04-22T10:03:06.923Z,99226.02
2024-04-22T10:08:09.062Z,99220.20
2024-04-22T10:13:12.400Z,99221.89
2024-04-22T10:18:16.618Z,99222.20
2024-04-22T10:23:18.551Z,99224.55
2024-04-22T10:28:20.461Z,99223.30
2024-04-22T10:33:22.204Z,99218.20
2024-04-22T10:38:23.902Z,99217.83
2024-04-22T10:43:25.799Z,99210.67
2024-04-22T10:48:28.092Z,99210.70
2024-04-22T10:53:29.913Z,99211.95
2024-04-22T10:58:31.663Z,99202.91
2024-04-22T11:03:33.662Z,99207.59
2024-04-22T11:08:36.682Z,99205.91
2024-04-22T11:13:39.092Z,99202.32
2024-04-22T11:18:40.913Z,99200.08
2024-04-22T11:23:43.238Z,99197.06
2024-04-22T11:28:46.702Z,99195.89
2024-04-22T11:33:48.586Z,99189.36
2024-04-22T11:38:51.594Z,99194.28
2024-04-22T11:43:54.499Z,99180.76
2024-04-22T11:48:56.223Z,99180.81
2024-04-22T11:53:58.198Z,99182.11
2024-04-22T11:59:00.782Z,99182.09
2024-04-22T12:04:02.945Z,99178.63
2024-04-22T12:09:06.726Z,99176.50
2024-04-22T12:14:09.986Z,99173.79
2024-04-22T12:19:11.613Z,99171.82
2024-04-22T12:24:13.372Z,99172.54
2024-04-22T12:29:15.117Z,99168.84
2024-04-22T12:34:17.127Z,99168.36
2024-04-22T12:39:20.692Z,99170.78
2024-04-22T12:44:22.425Z,99181.77
2024-04-22T12:49:42.921Z,99173.98
2024-04-22T12:54:44.733Z,99177.80
2024-04-22T12:59:46.493Z,99182.71
2024-04-22T13:04:48.236Z,99182.06
2024-04-22T13:09:49.999Z,99186.44
2024-04-22T13:14:53.618Z,99193.40
2024-04-22T13:19:55.421Z,99194.95
2024-04-22T13:24:57.307Z,99192.86
2024-04-22T13:30:03.047Z,99190.54
2024-04-22T13:35:05.456Z,99198.19
2024-04-22T13:40:08.961Z,99205.19
2024-04-22T13:45:10.669Z,99214.75
2024-04-22T13:50:12.590Z,99215.83
2024-04-22T13:55:14.703Z,99216.16
2024-04-22T14:00:16.663Z,99218.48
2024-04-22T14:05:18.589Z,99220.55
2024-04-22T14:10:20.433Z,99216.34
2024-04-22T14:15:27.649Z,99224.64
2024-04-22T14:20:39.081Z,99228.57
2024-04-22T14:25:40.834Z,99232.90
2024-04-22T14:30:42.626Z,99239.44
2024-04-22T14:35:44.340Z,99240.55
2024-04-22T14:40:46.123Z,99245.52
2024-04-22T14:45:47.979Z,99251.34
2024-04-22T14:50:53.371Z,99244.67
2024-04-22T14:55:55.036Z,99247.81
2024-04-22T15:00:56.861Z,99248.71
2024-04-22T15:05:58.668Z,99253.55
2024-04-22T15:11:03.999Z,99260.14
2024-04-22T15:16:08.040Z,99260.05
2024-04-22T15:21:09.961Z,99264.02
2024-04-22T15:26:11.907Z,99265.92
2024-04-22T15:31:13.640Z,99260.36
2024-04-22T15:36:17.382Z,99258.23
2024-04-22T15:41:19.164Z,99262.42
2024-04-22T15:46:20.946Z,99257.17
2024-04-22T15:51:23.882Z,99254.19
2024-04-22T15:56:25.660Z,99255.04
2024-04-22T16:01:27.499Z,99260.25
2024-04-22T16:06:29.240Z,99259.90
2024-04-22T16:11:32.975Z,99267.52
2024-04-22T16:16:36.572Z,99274.51
2024-04-22T16:21:38.386Z,99274.95
2024-04-22T16:26:40.137Z,99284.40
2024-04-22T16:31:42.510Z,99283.64
2024-04-22T16:36:45.312Z,99276.92
2024-04-22T16:41:47.064Z,99278.78
2024-04-22T16:46:48.817Z,99279.69
2024-04-22T16:51:50.608Z,99271.80
2024-04-22T16:56:52.235Z,99271.58
2024-04-22T17:01:53.986Z,99265.11
2024-04-22T17:06:55.936Z,99264.23
2024-04-22T17:11:57.753Z,99266.02
2024-04-22T17:17:01.748Z,99266.42
2024-04-22T17:22:05.184Z,99270.19
2024-04-22T17:27:06.952Z,99274.79
2024-04-22T17:32:08.781Z,99277.30
2024-04-22T17:37:12.484Z,99286.16
2024-04-22T17:42:14.427Z,99291.22
2024-04-22T17:47:16.214Z,99294.69
2024-04-22T17:52:17.993Z,99297.33
2024-04-22T17:57:19.742Z,99301.26
2024-04-22T18:02:21.540Z,99304.84
2024-04-22T18:07:23.387Z,99312.30
2024-04-22T18:12:25.102Z,99322.88
2024-04-22T18:17:27.424Z,99328.36
2024-04-22T18:22:32.370Z,99335.60
2024-04-22T18:27:40.169Z,99341.84
2024-04-22T18:32:43.490Z,99352.45
2024-04-22T18:37:45.276Z,99356.39
2024-04-22T18:42:47.011Z,99356.32
2024-04-22T18:47:48.854Z,99359.02
2024-04-22T18:52:50.776Z,99361.02
2024-04-22T18:57:52.735Z,99366.06
2024-04-22T19:02:55.185Z,99365.86
2024-04-22T19:07:57.032Z,99361.54
2024-04-22T19:12:58.994Z,99363.41
2024-04-22T19:18:00.929Z,99366.68
2024-04-22T19:23:02.884Z,99363.77
2024-04-22T19:28:04.924Z,99369.70
2024-04-22T19:33:07.663Z,99372.93
2024-04-22T19:38:09.414Z,99377.02
2024-04-22T19:43:11.141Z,99370.86
2024-04-22T19:48:13.226Z,99370.95
2024-04-22T19:53:15.208Z,99374.40
2024-04-22T19:58:17.052Z,99367.83
2024-04-22T20:03:18.776Z,99367.80
2024-04-22T20:08:21.441Z,99357.08
2024-04-22T20:13:23.261Z,99343.23
2024-04-22T20:18:40.538Z,99340.24
2024-04-22T20:23:42.286Z,99350.67
2024-04-22T20:28:44.086Z,99359.27
2024-04-22T20:33:46.280Z,99357.02
2024-04-22T20:38:48.125Z,99366.35
2024-04-22T20:43:49.912Z,99373.27
2024-04-22T20:48:51.751Z,99373.14
2024-04-22T20:53:53.473Z,99382.83
2024-04-22T20:58:56.441Z,99380.98
2024-04-22T21:03:58.250Z,99370.83
2024-04-22T21:09:04.088Z,99370.59
2024-04-22T21:14:06.079Z,99371.70
2024-04-22T21:19:15.064Z,99365.40
2024-04-22T21:24:21.896Z,99358.67
2024-04-22T21:29:23.788Z,99357.20
2024-04-22T21:34:25.722Z,99348.17
2024-04-22T21:39:27.679Z,99353.47
2024-04-22T21:44:30.161Z,99351.66
2024-04-22T21:49:32.076Z,99365.66
2024-04-22T21:54:33.759Z,99373.64
2024-04-22T22:00:13.143Z,99381.48
2024-04-22T22:05:52.673Z,99391.07
2024-04-22T22:16:15.930Z,99391.21
2024-04-22T22:21:17.826Z,99385.87
2024-04-22T22:26:19.521Z,99369.26
2024-04-22T22:31:21.314Z,99362.31
2024-04-22T22:36:23.137Z,99372.82
2024-04-22T22:41:24.792Z,99362.04
2024-04-22T22:46:26.463Z,99360.23
2024-04-22T22:51:28.137Z,99370.30
2024-04-22T22:56:29.826Z,99366.22
2024-04-22T23:01:31.517Z,99363.19
2024-04-22T23:06:33.442Z,99366.36
2024-04-22T23:11:35.163Z,99360.66
2024-04-22T23:16:37.370Z,99353.00
2024-04-22T23:21:39.067Z,99352.95
2024-04-22T23:26:52.089Z,99355.45
2024-04-22T23:31:53.827Z,99354.96
2024-04-22T23:36:55.600Z,99357.86
2024-04-22T23:41:57.288Z,99353.80
2024-04-22T23:46:59.236Z,99357.58
2024-04-22T23:52:01.097Z,99351.52
2024-04-22T23:57:03.984Z,99352.64
